Hua Kai — HO7805 — position and weather

sailwx.info

Track history (hours):
 
Tides and Currents Weather Stations Pressure Air Temp Water Temp Dewpoint Dewpoint Depression Visibility Wind Speed Wind Dir Waves Ship Positions

Hua Kai

Last reported at 2018-Jun-24 16:07 UTC. Time now 2018-Jul-23 04:05 UTC.
Position N 34°24' E 134°14'.
Warning: this ship's position is 28 days out of date.

Length 100 m; draft 4.7 m.

Type: Cargo ship. MMSI: 370335000.

Date/timePositionNaut miles runAvg speedWind from/ knotsBaromVisibWave heightAir tempDewpointWater temp
2018-Jun-24 16:07N 34°24' E 134°14'1 9.8
2018-Jun-24 16:00N 34°24' E 134°15'510.8
2018-Jun-24 15:30N 34°25' E 134°22'610.9
2018-Jun-24 15:00N 34°27' E 134°28'510.6
2018-Jun-24 14:30N 34°29' E 134°34'510.2
2018-Jun-24 14:00N 34°31' E 134°40'611.1
2018-Jun-24 13:30N 34°33' E 134°46'611.5
2018-Jun-24 13:00N 34°35' E 134°52'611.1
2018-Jun-24 12:30N 34°37' E 134°58'510.7
2018-Jun-24 12:00N 34°36' E 135°04'510.6
2018-Jun-24 11:30N 34°30' E 135°04'611.9
2018-Jun-24 11:00N 34°24' E 135°02'612.6
2018-Jun-24 10:30N 34°18' E 134°60'612.0
2018-Jun-24 10:00N 34°12' E 134°59'611.7
2018-Jun-24 09:30N 34°07' E 135°00'611.6
2018-Jun-24 08:58N 34°00' E 135°00'511.7
2018-Jun-24 08:30N 33°55' E 135°01'  
Track history (hours):
 
Tides and Currents Weather Stations Pressure Air Temp Water Temp Dewpoint Dewpoint Depression Visibility Wind Speed Wind Dir Waves Ship Positions

Hua Kai

Last reported at 2018-Jun-24 16:07 UTC. Time now 2018-Jul-23 04:05 UTC.
Position N 34°24' E 134°14'.
Warning: this ship's position is 28 days out of date.

Length 100 m; draft 4.7 m.

Type: Cargo ship. MMSI: 370335000.

Date/timePositionNaut miles runAvg speedWind from/ knotsBaromVisibWave heightAir tempDewpointWater temp
2018-Jun-24 16:07N 34°24' E 134°14'1 9.8
2018-Jun-24 16:00N 34°24' E 134°15'510.8
2018-Jun-24 15:30N 34°25' E 134°22'610.9
2018-Jun-24 15:00N 34°27' E 134°28'510.6
2018-Jun-24 14:30N 34°29' E 134°34'510.2
2018-Jun-24 14:00N 34°31' E 134°40'611.1
2018-Jun-24 13:30N 34°33' E 134°46'611.5
2018-Jun-24 13:00N 34°35' E 134°52'611.1
2018-Jun-24 12:30N 34°37' E 134°58'510.7
2018-Jun-24 12:00N 34°36' E 135°04'510.6
2018-Jun-24 11:30N 34°30' E 135°04'611.9
2018-Jun-24 11:00N 34°24' E 135°02'612.6
2018-Jun-24 10:30N 34°18' E 134°60'612.0
2018-Jun-24 10:00N 34°12' E 134°59'611.7
2018-Jun-24 09:30N 34°07' E 135°00'611.6
2018-Jun-24 08:58N 34°00' E 135°00'511.7
2018-Jun-24 08:30N 33°55' E 135°01'  

Dump ship's entire track history